sensor_id;sensor_type;location;lat;lon;timestamp;P1;durP1;ratioP1;P2;durP2;ratioP2
22715;SDS011;11525;51.152;4.456;2023-02-24T00:01:20;31.60;;;7.28;;
22715;SDS011;11525;51.152;4.456;2023-02-24T00:03:52;34.85;;;7.68;;
22715;SDS011;11525;51.152;4.456;2023-02-24T00:06:21;33.13;;;7.60;;
22715;SDS011;11525;51.152;4.456;2023-02-24T00:09:00;26.65;;;6.95;;
22715;SDS011;11525;51.152;4.456;2023-02-24T00:11:33;29.55;;;7.25;;
22715;SDS011;11525;51.152;4.456;2023-02-24T00:14:00;32.03;;;7.40;;
22715;SDS011;11525;51.152;4.456;2023-02-24T00:16:29;37.85;;;8.05;;
22715;SDS011;11525;51.152;4.456;2023-02-24T00:18:56;28.85;;;6.85;;
22715;SDS011;11525;51.152;4.456;2023-02-24T00:21:22;33.10;;;7.50;;
22715;SDS011;11525;51.152;4.456;2023-02-24T00:23:48;23.15;;;7.55;;
22715;SDS011;11525;51.152;4.456;2023-02-24T00:26:15;37.65;;;6.88;;
22715;SDS011;11525;51.152;4.456;2023-02-24T00:28:41;26.48;;;6.55;;
22715;SDS011;11525;51.152;4.456;2023-02-24T00:31:09;23.23;;;6.93;;
22715;SDS011;11525;51.152;4.456;2023-02-24T00:33:41;24.13;;;5.65;;
22715;SDS011;11525;51.152;4.456;2023-02-24T00:36:09;31.42;;;6.93;;
22715;SDS011;11525;51.152;4.456;2023-02-24T00:38:36;31.98;;;6.35;;
22715;SDS011;11525;51.152;4.456;2023-02-24T00:41:13;33.00;;;8.32;;
22715;SDS011;11525;51.152;4.456;2023-02-24T00:43:41;35.20;;;7.93;;
22715;SDS011;11525;51.152;4.456;2023-02-24T00:46:11;31.38;;;7.18;;
22715;SDS011;11525;51.152;4.456;2023-02-24T00:48:39;27.27;;;7.05;;
22715;SDS011;11525;51.152;4.456;2023-02-24T00:51:06;32.55;;;6.50;;
22715;SDS011;11525;51.152;4.456;2023-02-24T00:53:34;24.08;;;5.90;;
22715;SDS011;11525;51.152;4.456;2023-02-24T00:56:01;30.77;;;6.30;;
22715;SDS011;11525;51.152;4.456;2023-02-24T00:58:26;30.30;;;8.85;;
22715;SDS011;11525;51.152;4.456;2023-02-24T01:00:54;31.10;;;8.00;;
22715;SDS011;11525;51.152;4.456;2023-02-24T01:03:20;31.40;;;6.20;;
22715;SDS011;11525;51.152;4.456;2023-02-24T01:05:46;29.58;;;6.95;;
22715;SDS011;11525;51.152;4.456;2023-02-24T01:08:12;23.77;;;6.68;;
22715;SDS011;11525;51.152;4.456;2023-02-24T01:10:47;30.08;;;7.47;;
22715;SDS011;11525;51.152;4.456;2023-02-24T01:13:39;27.00;;;6.60;;
22715;SDS011;11525;51.152;4.456;2023-02-24T01:16:05;27.63;;;7.20;;
22715;SDS011;11525;51.152;4.456;2023-02-24T01:18:31;21.98;;;6.55;;
22715;SDS011;11525;51.152;4.456;2023-02-24T01:20:57;19.75;;;6.70;;
22715;SDS011;11525;51.152;4.456;2023-02-24T01:23:23;28.98;;;7.43;;
22715;SDS011;11525;51.152;4.456;2023-02-24T01:25:50;30.63;;;6.03;;
22715;SDS011;11525;51.152;4.456;2023-02-24T01:28:16;22.65;;;5.90;;
22715;SDS011;11525;51.152;4.456;2023-02-24T01:30:42;13.23;;;3.92;;
22715;SDS011;11525;51.152;4.456;2023-02-24T01:33:08;14.90;;;4.85;;
22715;SDS011;11525;51.152;4.456;2023-02-24T01:35:38;17.10;;;5.15;;
22715;SDS011;11525;51.152;4.456;2023-02-24T01:38:04;19.77;;;4.93;;
22715;SDS011;11525;51.152;4.456;2023-02-24T01:40:31;27.55;;;6.10;;
22715;SDS011;11525;51.152;4.456;2023-02-24T01:42:57;18.42;;;5.80;;
22715;SDS011;11525;51.152;4.456;2023-02-24T01:45:24;23.73;;;5.20;;
22715;SDS011;11525;51.152;4.456;2023-02-24T01:47:52;20.30;;;4.85;;
22715;SDS011;11525;51.152;4.456;2023-02-24T01:50:24;25.27;;;4.75;;
22715;SDS011;11525;51.152;4.456;2023-02-24T01:52:54;19.13;;;4.82;;
22715;SDS011;11525;51.152;4.456;2023-02-24T01:55:24;18.50;;;4.47;;
22715;SDS011;11525;51.152;4.456;2023-02-24T01:57:56;21.58;;;4.43;;
22715;SDS011;11525;51.152;4.456;2023-02-24T02:00:25;16.58;;;4.30;;
22715;SDS011;11525;51.152;4.456;2023-02-24T02:03:28;18.20;;;4.32;;
22715;SDS011;11525;51.152;4.456;2023-02-24T02:06:04;16.92;;;4.40;;
22715;SDS011;11525;51.152;4.456;2023-02-24T02:08:32;15.68;;;3.92;;
22715;SDS011;11525;51.152;4.456;2023-02-24T02:11:05;23.33;;;4.90;;
22715;SDS011;11525;51.152;4.456;2023-02-24T02:13:34;11.48;;;3.55;;
22715;SDS011;11525;51.152;4.456;2023-02-24T02:41:28;19.02;;;4.65;;
22715;SDS011;11525;51.152;4.456;2023-02-24T02:44:08;12.23;;;4.20;;
22715;SDS011;11525;51.152;4.456;2023-02-24T02:46:45;14.20;;;3.78;;
22715;SDS011;11525;51.152;4.456;2023-02-24T02:52:12;21.15;;;4.88;;
22715;SDS011;11525;51.152;4.456;2023-02-24T02:54:53;13.60;;;4.03;;
22715;SDS011;11525;51.152;4.456;2023-02-24T02:57:28;18.35;;;4.90;;
22715;SDS011;11525;51.152;4.456;2023-02-24T02:59:57;20.98;;;4.28;;
22715;SDS011;11525;51.152;4.456;2023-02-24T03:02:45;17.98;;;4.38;;
22715;SDS011;11525;51.152;4.456;2023-02-24T03:05:20;22.13;;;3.97;;
22715;SDS011;11525;51.152;4.456;2023-02-24T03:07:54;15.60;;;3.67;;
22715;SDS011;11525;51.152;4.456;2023-02-24T03:10:26;14.02;;;3.38;;
22715;SDS011;11525;51.152;4.456;2023-02-24T03:12:54;14.90;;;3.40;;
22715;SDS011;11525;51.152;4.456;2023-02-24T03:15:24;18.83;;;3.97;;
22715;SDS011;11525;51.152;4.456;2023-02-24T03:17:58;19.58;;;4.38;;
22715;SDS011;11525;51.152;4.456;2023-02-24T03:20:40;17.40;;;3.72;;
22715;SDS011;11525;51.152;4.456;2023-02-24T03:23:20;14.15;;;3.40;;
22715;SDS011;11525;51.152;4.456;2023-02-24T03:25:51;17.33;;;3.50;;
22715;SDS011;11525;51.152;4.456;2023-02-24T03:28:49;17.65;;;4.25;;
22715;SDS011;11525;51.152;4.456;2023-02-24T03:31:26;16.40;;;4.40;;
22715;SDS011;11525;51.152;4.456;2023-02-24T03:34:09;8.95;;;3.58;;
22715;SDS011;11525;51.152;4.456;2023-02-24T03:36:41;14.80;;;3.95;;
22715;SDS011;11525;51.152;4.456;2023-02-24T03:39:07;17.27;;;4.03;;
22715;SDS011;11525;51.152;4.456;2023-02-24T03:42:18;18.58;;;4.05;;
22715;SDS011;11525;51.152;4.456;2023-02-24T03:44:29;18.63;;;4.07;;
22715;SDS011;11525;51.152;4.456;2023-02-24T03:46:56;24.77;;;4.75;;
22715;SDS011;11525;51.152;4.456;2023-02-24T03:49:22;15.77;;;4.55;;
22715;SDS011;11525;51.152;4.456;2023-02-24T04:03:24;22.70;;;5.72;;
22715;SDS011;11525;51.152;4.456;2023-02-24T04:06:17;17.98;;;4.68;;
22715;SDS011;11525;51.152;4.456;2023-02-24T04:11:45;16.75;;;5.07;;
22715;SDS011;11525;51.152;4.456;2023-02-24T04:14:39;21.13;;;5.38;;
22715;SDS011;11525;51.152;4.456;2023-02-24T04:17:27;11.10;;;5.72;;
22715;SDS011;11525;51.152;4.456;2023-02-24T04:20:04;18.48;;;4.55;;
22715;SDS011;11525;51.152;4.456;2023-02-24T04:22:48;12.48;;;4.05;;
22715;SDS011;11525;51.152;4.456;2023-02-24T04:25:19;17.35;;;4.47;;
22715;SDS011;11525;51.152;4.456;2023-02-24T04:27:53;20.65;;;4.50;;
22715;SDS011;11525;51.152;4.456;2023-02-24T04:30:23;12.45;;;4.55;;
22715;SDS011;11525;51.152;4.456;2023-02-24T04:32:51;20.55;;;4.85;;
22715;SDS011;11525;51.152;4.456;2023-02-24T04:35:18;18.08;;;4.40;;
22715;SDS011;11525;51.152;4.456;2023-02-24T04:37:46;7.82;;;4.40;;
22715;SDS011;11525;51.152;4.456;2023-02-24T04:40:15;8.30;;;4.65;;
22715;SDS011;11525;51.152;4.456;2023-02-24T04:42:42;14.80;;;4.97;;
22715;SDS011;11525;51.152;4.456;2023-02-24T04:45:31;12.73;;;4.45;;
22715;SDS011;11525;51.152;4.456;2023-02-24T04:47:57;13.75;;;4.22;;
22715;SDS011;11525;51.152;4.456;2023-02-24T04:50:31;16.30;;;4.20;;
22715;SDS011;11525;51.152;4.456;2023-02-24T04:53:00;10.63;;;4.32;;
22715;SDS011;11525;51.152;4.456;2023-02-24T04:55:28;12.82;;;4.40;;
22715;SDS011;11525;51.152;4.456;2023-02-24T04:58:00;15.00;;;4.30;;
22715;SDS011;11525;51.152;4.456;2023-02-24T05:00:26;9.38;;;4.55;;
22715;SDS011;11525;51.152;4.456;2023-02-24T05:02:57;16.95;;;5.93;;
22715;SDS011;11525;51.152;4.456;2023-02-24T05:05:26;7.82;;;3.47;;
22715;SDS011;11525;51.152;4.456;2023-02-24T05:07:53;17.85;;;4.57;;
22715;SDS011;11525;51.152;4.456;2023-02-24T05:10:20;15.27;;;4.55;;
22715;SDS011;11525;51.152;4.456;2023-02-24T05:12:52;9.15;;;4.20;;
22715;SDS011;11525;51.152;4.456;2023-02-24T05:15:18;15.32;;;4.88;;
22715;SDS011;11525;51.152;4.456;2023-02-24T05:17:44;19.80;;;4.90;;
22715;SDS011;11525;51.152;4.456;2023-02-24T05:20:10;16.45;;;4.80;;
22715;SDS011;11525;51.152;4.456;2023-02-24T05:22:54;15.50;;;5.30;;
22715;SDS011;11525;51.152;4.456;2023-02-24T05:25:20;18.77;;;6.10;;
22715;SDS011;11525;51.152;4.456;2023-02-24T05:27:49;16.83;;;5.57;;
22715;SDS011;11525;51.152;4.456;2023-02-24T05:30:15;13.70;;;4.90;;
22715;SDS011;11525;51.152;4.456;2023-02-24T05:32:42;18.52;;;4.72;;
22715;SDS011;11525;51.152;4.456;2023-02-24T05:35:09;11.98;;;4.63;;
22715;SDS011;11525;51.152;4.456;2023-02-24T05:37:38;16.27;;;4.60;;
22715;SDS011;11525;51.152;4.456;2023-02-24T05:40:06;10.88;;;4.85;;
22715;SDS011;11525;51.152;4.456;2023-02-24T05:42:35;11.50;;;4.65;;
22715;SDS011;11525;51.152;4.456;2023-02-24T05:45:00;16.17;;;4.72;;
22715;SDS011;11525;51.152;4.456;2023-02-24T05:47:27;9.98;;;4.43;;
22715;SDS011;11525;51.152;4.456;2023-02-24T05:49:52;10.05;;;4.00;;
22715;SDS011;11525;51.152;4.456;2023-02-24T05:52:21;16.00;;;4.75;;
22715;SDS011;11525;51.152;4.456;2023-02-24T05:54:47;9.98;;;3.72;;
22715;SDS011;11525;51.152;4.456;2023-02-24T05:57:17;12.98;;;4.28;;
22715;SDS011;11525;51.152;4.456;2023-02-24T05:59:49;13.48;;;4.38;;
22715;SDS011;11525;51.152;4.456;2023-02-24T06:02:16;11.55;;;3.92;;
22715;SDS011;11525;51.152;4.456;2023-02-24T06:04:51;14.23;;;4.47;;
22715;SDS011;11525;51.152;4.456;2023-02-24T06:09:49;11.88;;;3.90;;
22715;SDS011;11525;51.152;4.456;2023-02-24T06:12:26;14.50;;;4.30;;
22715;SDS011;11525;51.152;4.456;2023-02-24T06:14:53;15.40;;;4.45;;
22715;SDS011;11525;51.152;4.456;2023-02-24T06:17:20;15.63;;;4.07;;
22715;SDS011;11525;51.152;4.456;2023-02-24T06:19:48;19.40;;;4.72;;
22715;SDS011;11525;51.152;4.456;2023-02-24T06:22:16;13.32;;;4.45;;
22715;SDS011;11525;51.152;4.456;2023-02-24T06:24:44;13.55;;;4.10;;
22715;SDS011;11525;51.152;4.456;2023-02-24T06:27:10;16.40;;;5.88;;
22715;SDS011;11525;51.152;4.456;2023-02-24T06:29:42;13.50;;;4.53;;
22715;SDS011;11525;51.152;4.456;2023-02-24T06:32:13;18.38;;;6.07;;
22715;SDS011;11525;51.152;4.456;2023-02-24T06:34:44;13.23;;;4.43;;
22715;SDS011;11525;51.152;4.456;2023-02-24T06:37:11;13.68;;;4.18;;
22715;SDS011;11525;51.152;4.456;2023-02-24T06:39:38;18.85;;;5.63;;
22715;SDS011;11525;51.152;4.456;2023-02-24T06:42:04;13.98;;;5.47;;
22715;SDS011;11525;51.152;4.456;2023-02-24T06:44:36;20.67;;;4.75;;
22715;SDS011;11525;51.152;4.456;2023-02-24T06:47:03;27.27;;;7.05;;
22715;SDS011;11525;51.152;4.456;2023-02-24T06:49:31;17.45;;;4.70;;
22715;SDS011;11525;51.152;4.456;2023-02-24T06:51:57;18.15;;;5.43;;
22715;SDS011;11525;51.152;4.456;2023-02-24T06:54:24;17.42;;;5.13;;
22715;SDS011;11525;51.152;4.456;2023-02-24T06:56:54;18.85;;;5.25;;
22715;SDS011;11525;51.152;4.456;2023-02-24T06:59:22;16.98;;;5.43;;
22715;SDS011;11525;51.152;4.456;2023-02-24T07:01:52;21.00;;;6.05;;
22715;SDS011;11525;51.152;4.456;2023-02-24T07:04:27;16.33;;;5.28;;
22715;SDS011;11525;51.152;4.456;2023-02-24T07:06:55;21.02;;;6.30;;
22715;SDS011;11525;51.152;4.456;2023-02-24T07:09:26;20.25;;;4.85;;
22715;SDS011;11525;51.152;4.456;2023-02-24T07:11:54;21.80;;;6.13;;
22715;SDS011;11525;51.152;4.456;2023-02-24T07:14:21;14.10;;;5.60;;
22715;SDS011;11525;51.152;4.456;2023-02-24T07:16:49;20.38;;;6.75;;
22715;SDS011;11525;51.152;4.456;2023-02-24T07:19:22;19.88;;;5.68;;
22715;SDS011;11525;51.152;4.456;2023-02-24T07:21:57;23.65;;;7.20;;
22715;SDS011;11525;51.152;4.456;2023-02-24T07:24:25;18.80;;;5.72;;
22715;SDS011;11525;51.152;4.456;2023-02-24T07:27:00;19.60;;;5.85;;
22715;SDS011;11525;51.152;4.456;2023-02-24T07:29:29;19.50;;;5.68;;
22715;SDS011;11525;51.152;4.456;2023-02-24T07:32:01;21.73;;;6.38;;
22715;SDS011;11525;51.152;4.456;2023-02-24T07:34:29;18.92;;;5.22;;
22715;SDS011;11525;51.152;4.456;2023-02-24T07:36:57;23.85;;;6.03;;
22715;SDS011;11525;51.152;4.456;2023-02-24T07:39:23;25.15;;;5.97;;
22715;SDS011;11525;51.152;4.456;2023-02-24T07:41:50;13.70;;;5.25;;
22715;SDS011;11525;51.152;4.456;2023-02-24T07:44:19;18.10;;;4.43;;
22715;SDS011;11525;51.152;4.456;2023-02-24T07:46:47;17.88;;;4.63;;
22715;SDS011;11525;51.152;4.456;2023-02-24T07:49:15;16.67;;;5.28;;
22715;SDS011;11525;51.152;4.456;2023-02-24T07:51:46;23.83;;;6.40;;
22715;SDS011;11525;51.152;4.456;2023-02-24T07:54:17;19.08;;;5.22;;
22715;SDS011;11525;51.152;4.456;2023-02-24T07:56:45;21.33;;;4.95;;
22715;SDS011;11525;51.152;4.456;2023-02-24T07:59:13;15.60;;;4.75;;
22715;SDS011;11525;51.152;4.456;2023-02-24T08:01:43;12.65;;;4.15;;
22715;SDS011;11525;51.152;4.456;2023-02-24T08:04:17;11.18;;;4.00;;
22715;SDS011;11525;51.152;4.456;2023-02-24T08:06:47;13.35;;;3.92;;
22715;SDS011;11525;51.152;4.456;2023-02-24T08:09:20;15.93;;;4.07;;
22715;SDS011;11525;51.152;4.456;2023-02-24T08:12:08;14.82;;;4.45;;
22715;SDS011;11525;51.152;4.456;2023-02-24T08:14:42;13.95;;;3.95;;
22715;SDS011;11525;51.152;4.456;2023-02-24T08:17:15;18.17;;;5.32;;
22715;SDS011;11525;51.152;4.456;2023-02-24T08:19:50;18.88;;;4.80;;
22715;SDS011;11525;51.152;4.456;2023-02-24T08:22:38;16.00;;;3.88;;
22715;SDS011;11525;51.152;4.456;2023-02-24T08:25:08;26.02;;;4.07;;
22715;SDS011;11525;51.152;4.456;2023-02-24T08:27:42;17.83;;;4.13;;
22715;SDS011;11525;51.152;4.456;2023-02-24T08:30:09;15.73;;;4.07;;
22715;SDS011;11525;51.152;4.456;2023-02-24T08:32:45;11.60;;;3.58;;
22715;SDS011;11525;51.152;4.456;2023-02-24T08:35:17;12.82;;;3.72;;
22715;SDS011;11525;51.152;4.456;2023-02-24T08:37:47;16.42;;;4.13;;
22715;SDS011;11525;51.152;4.456;2023-02-24T08:40:21;10.73;;;3.08;;
22715;SDS011;11525;51.152;4.456;2023-02-24T08:45:50;10.05;;;4.38;;
22715;SDS011;11525;51.152;4.456;2023-02-24T08:48:26;11.25;;;3.38;;
22715;SDS011;11525;51.152;4.456;2023-02-24T08:51:12;18.83;;;4.35;;
22715;SDS011;11525;51.152;4.456;2023-02-24T08:53:46;16.85;;;3.72;;
22715;SDS011;11525;51.152;4.456;2023-02-24T08:56:17;8.93;;;3.22;;
22715;SDS011;11525;51.152;4.456;2023-02-24T08:58:48;11.95;;;3.00;;
22715;SDS011;11525;51.152;4.456;2023-02-24T09:01:21;13.63;;;3.60;;
22715;SDS011;11525;51.152;4.456;2023-02-24T09:03:54;11.75;;;3.45;;
22715;SDS011;11525;51.152;4.456;2023-02-24T09:06:33;15.45;;;3.30;;
22715;SDS011;11525;51.152;4.456;2023-02-24T09:08:59;19.20;;;3.90;;
22715;SDS011;11525;51.152;4.456;2023-02-24T09:11:57;11.43;;;3.63;;
22715;SDS011;11525;51.152;4.456;2023-02-24T09:14:25;15.88;;;4.00;;
22715;SDS011;11525;51.152;4.456;2023-02-24T09:17:01;8.48;;;3.33;;
22715;SDS011;11525;51.152;4.456;2023-02-24T09:19:30;14.43;;;3.53;;
22715;SDS011;11525;51.152;4.456;2023-02-24T09:22:08;9.88;;;3.45;;
22715;SDS011;11525;51.152;4.456;2023-02-24T09:24:53;16.17;;;3.80;;
22715;SDS011;11525;51.152;4.456;2023-02-24T09:27:39;13.52;;;3.67;;
22715;SDS011;11525;51.152;4.456;2023-02-24T09:30:09;11.05;;;3.75;;
22715;SDS011;11525;51.152;4.456;2023-02-24T09:32:55;9.15;;;3.60;;
22715;SDS011;11525;51.152;4.456;2023-02-24T09:35:27;10.60;;;3.92;;
22715;SDS011;11525;51.152;4.456;2023-02-24T09:38:01;18.50;;;4.22;;
22715;SDS011;11525;51.152;4.456;2023-02-24T09:40:32;13.85;;;3.38;;
22715;SDS011;11525;51.152;4.456;2023-02-24T09:43:11;14.98;;;3.90;;
22715;SDS011;11525;51.152;4.456;2023-02-24T09:48:36;16.33;;;4.25;;
22715;SDS011;11525;51.152;4.456;2023-02-24T09:51:12;10.43;;;3.80;;
22715;SDS011;11525;51.152;4.456;2023-02-24T09:53:47;12.00;;;4.30;;
22715;SDS011;11525;51.152;4.456;2023-02-24T09:59:14;13.20;;;4.28;;
22715;SDS011;11525;51.152;4.456;2023-02-24T10:07:44;22.58;;;3.95;;
22715;SDS011;11525;51.152;4.456;2023-02-24T10:12:59;15.02;;;4.13;;
22715;SDS011;11525;51.152;4.456;2023-02-24T10:15:37;14.27;;;3.75;;
22715;SDS011;11525;51.152;4.456;2023-02-24T10:20:58;13.52;;;3.78;;
22715;SDS011;11525;51.152;4.456;2023-02-24T10:23:28;8.80;;;3.13;;
22715;SDS011;11525;51.152;4.456;2023-02-24T10:26:21;13.68;;;4.05;;
22715;SDS011;11525;51.152;4.456;2023-02-24T10:31:58;20.98;;;4.22;;
22715;SDS011;11525;51.152;4.456;2023-02-24T10:34:40;15.35;;;4.30;;
22715;SDS011;11525;51.152;4.456;2023-02-24T10:37:15;13.70;;;4.28;;
22715;SDS011;11525;51.152;4.456;2023-02-24T10:39:43;12.18;;;4.57;;
22715;SDS011;11525;51.152;4.456;2023-02-24T10:42:21;16.15;;;4.63;;
22715;SDS011;11525;51.152;4.456;2023-02-24T10:44:49;13.43;;;4.10;;
22715;SDS011;11525;51.152;4.456;2023-02-24T10:47:51;13.23;;;4.00;;
22715;SDS011;11525;51.152;4.456;2023-02-24T10:50:19;10.35;;;4.55;;
22715;SDS011;11525;51.152;4.456;2023-02-24T10:52:48;11.73;;;4.38;;
22715;SDS011;11525;51.152;4.456;2023-02-24T11:01:18;10.27;;;4.18;;
22715;SDS011;11525;51.152;4.456;2023-02-24T11:04:31;11.77;;;4.30;;
22715;SDS011;11525;51.152;4.456;2023-02-24T11:07:19;10.50;;;3.80;;
22715;SDS011;11525;51.152;4.456;2023-02-24T11:10:03;12.00;;;5.40;;
22715;SDS011;11525;51.152;4.456;2023-02-24T11:12:50;13.52;;;5.07;;
22715;SDS011;11525;51.152;4.456;2023-02-24T11:18:26;14.20;;;5.20;;
22715;SDS011;11525;51.152;4.456;2023-02-24T11:20:58;14.30;;;4.55;;
22715;SDS011;11525;51.152;4.456;2023-02-24T11:29:06;17.13;;;5.07;;
22715;SDS011;11525;51.152;4.456;2023-02-24T11:40:24;14.60;;;5.72;;
22715;SDS011;11525;51.152;4.456;2023-02-24T11:43:36;19.23;;;4.90;;
22715;SDS011;11525;51.152;4.456;2023-02-24T11:51:02;13.95;;;6.20;;
22715;SDS011;11525;51.152;4.456;2023-02-24T11:53:33;15.57;;;5.15;;
22715;SDS011;11525;51.152;4.456;2023-02-24T12:01:01;14.40;;;4.43;;
22715;SDS011;11525;51.152;4.456;2023-02-24T12:03:43;11.63;;;4.22;;
22715;SDS011;11525;51.152;4.456;2023-02-24T12:06:25;13.20;;;5.00;;
22715;SDS011;11525;51.152;4.456;2023-02-24T12:09:12;18.20;;;5.55;;
22715;SDS011;11525;51.152;4.456;2023-02-24T12:11:47;20.45;;;5.07;;
22715;SDS011;11525;51.152;4.456;2023-02-24T12:16:42;14.70;;;5.03;;
22715;SDS011;11525;51.152;4.456;2023-02-24T12:19:19;15.68;;;5.30;;
22715;SDS011;11525;51.152;4.456;2023-02-24T12:22:10;14.32;;;5.78;;
22715;SDS011;11525;51.152;4.456;2023-02-24T12:24:40;13.52;;;5.15;;
22715;SDS011;11525;51.152;4.456;2023-02-24T12:27:17;13.82;;;4.88;;
22715;SDS011;11525;51.152;4.456;2023-02-24T12:30:36;19.10;;;5.13;;
22715;SDS011;11525;51.152;4.456;2023-02-24T12:41:59;14.90;;;5.50;;
22715;SDS011;11525;51.152;4.456;2023-02-24T12:44:33;12.75;;;5.55;;
22715;SDS011;11525;51.152;4.456;2023-02-24T12:47:40;16.95;;;6.35;;
22715;SDS011;11525;51.152;4.456;2023-02-24T12:53:16;20.77;;;5.70;;
22715;SDS011;11525;51.152;4.456;2023-02-24T12:58:29;14.48;;;5.50;;
22715;SDS011;11525;51.152;4.456;2023-02-24T13:03:34;11.65;;;5.45;;
22715;SDS011;11525;51.152;4.456;2023-02-24T13:06:05;15.75;;;6.13;;
22715;SDS011;11525;51.152;4.456;2023-02-24T13:08:47;14.25;;;5.72;;
22715;SDS011;11525;51.152;4.456;2023-02-24T13:11:54;17.83;;;6.65;;
22715;SDS011;11525;51.152;4.456;2023-02-24T13:17:02;16.23;;;7.60;;
22715;SDS011;11525;51.152;4.456;2023-02-24T13:19:42;16.02;;;5.80;;
22715;SDS011;11525;51.152;4.456;2023-02-24T13:24:41;12.43;;;6.35;;
22715;SDS011;11525;51.152;4.456;2023-02-24T13:34:52;14.95;;;7.43;;
22715;SDS011;11525;51.152;4.456;2023-02-24T13:39:58;16.65;;;7.65;;
22715;SDS011;11525;51.152;4.456;2023-02-24T13:42:28;17.10;;;7.75;;
22715;SDS011;11525;51.152;4.456;2023-02-24T13:50:53;15.63;;;9.00;;
22715;SDS011;11525;51.152;4.456;2023-02-24T14:01:32;15.38;;;8.68;;
22715;SDS011;11525;51.152;4.456;2023-02-24T14:04:13;15.55;;;8.15;;
22715;SDS011;11525;51.152;4.456;2023-02-24T14:06:52;14.00;;;8.70;;
22715;SDS011;11525;51.152;4.456;2023-02-24T14:09:22;16.98;;;8.90;;
22715;SDS011;11525;51.152;4.456;2023-02-24T14:11:56;16.35;;;9.10;;
22715;SDS011;11525;51.152;4.456;2023-02-24T14:14:25;12.68;;;9.07;;
22715;SDS011;11525;51.152;4.456;2023-02-24T14:16:52;23.17;;;10.13;;
22715;SDS011;11525;51.152;4.456;2023-02-24T14:19:17;19.50;;;10.05;;
22715;SDS011;11525;51.152;4.456;2023-02-24T14:21:53;18.23;;;10.50;;
22715;SDS011;11525;51.152;4.456;2023-02-24T14:24:21;20.23;;;9.73;;
22715;SDS011;11525;51.152;4.456;2023-02-24T14:26:49;20.15;;;11.98;;
22715;SDS011;11525;51.152;4.456;2023-02-24T14:29:17;20.15;;;12.38;;
22715;SDS011;11525;51.152;4.456;2023-02-24T14:31:49;20.05;;;12.80;;
22715;SDS011;11525;51.152;4.456;2023-02-24T14:34:23;22.85;;;14.43;;
22715;SDS011;11525;51.152;4.456;2023-02-24T14:36:52;19.40;;;13.55;;
22715;SDS011;11525;51.152;4.456;2023-02-24T14:39:24;19.48;;;12.43;;
22715;SDS011;11525;51.152;4.456;2023-02-24T14:44:55;21.20;;;13.63;;
22715;SDS011;11525;51.152;4.456;2023-02-24T14:47:23;22.70;;;13.80;;
22715;SDS011;11525;51.152;4.456;2023-02-24T14:49:59;18.10;;;12.57;;
22715;SDS011;11525;51.152;4.456;2023-02-24T14:57:51;15.38;;;11.15;;
22715;SDS011;11525;51.152;4.456;2023-02-24T15:00:22;18.13;;;11.57;;
22715;SDS011;11525;51.152;4.456;2023-02-24T15:05:56;19.45;;;12.32;;
22715;SDS011;11525;51.152;4.456;2023-02-24T15:10:59;20.30;;;11.75;;
22715;SDS011;11525;51.152;4.456;2023-02-24T15:13:40;23.38;;;12.43;;
22715;SDS011;11525;51.152;4.456;2023-02-24T15:16:11;22.75;;;13.90;;
22715;SDS011;11525;51.152;4.456;2023-02-24T15:18:48;25.60;;;13.23;;
22715;SDS011;11525;51.152;4.456;2023-02-24T15:22:00;21.67;;;13.23;;
22715;SDS011;11525;51.152;4.456;2023-02-24T15:24:26;28.70;;;19.60;;
22715;SDS011;11525;51.152;4.456;2023-02-24T15:27:00;21.27;;;15.02;;
22715;SDS011;11525;51.152;4.456;2023-02-24T15:29:59;24.50;;;14.00;;
22715;SDS011;11525;51.152;4.456;2023-02-24T15:32:35;20.15;;;13.02;;
22715;SDS011;11525;51.152;4.456;2023-02-24T15:35:02;25.13;;;14.05;;
22715;SDS011;11525;51.152;4.456;2023-02-24T15:37:32;21.65;;;12.20;;
22715;SDS011;11525;51.152;4.456;2023-02-24T15:40:10;20.55;;;11.68;;
22715;SDS011;11525;51.152;4.456;2023-02-24T15:42:51;22.13;;;11.93;;
22715;SDS011;11525;51.152;4.456;2023-02-24T15:45:22;25.25;;;12.40;;
22715;SDS011;11525;51.152;4.456;2023-02-24T15:48:02;25.30;;;12.82;;
22715;SDS011;11525;51.152;4.456;2023-02-24T15:50:42;23.08;;;11.10;;
22715;SDS011;11525;51.152;4.456;2023-02-24T15:53:08;25.35;;;11.70;;
22715;SDS011;11525;51.152;4.456;2023-02-24T15:55:37;18.88;;;10.57;;
22715;SDS011;11525;51.152;4.456;2023-02-24T15:58:10;24.52;;;11.60;;
22715;SDS011;11525;51.152;4.456;2023-02-24T16:00:39;23.45;;;10.43;;
22715;SDS011;11525;51.152;4.456;2023-02-24T16:03:05;22.77;;;10.27;;
22715;SDS011;11525;51.152;4.456;2023-02-24T16:05:31;31.02;;;10.18;;
22715;SDS011;11525;51.152;4.456;2023-02-24T16:07:57;24.50;;;10.05;;
22715;SDS011;11525;51.152;4.456;2023-02-24T16:10:24;28.52;;;8.63;;
22715;SDS011;11525;51.152;4.456;2023-02-24T16:12:56;27.40;;;9.73;;
22715;SDS011;11525;51.152;4.456;2023-02-24T16:15:25;25.30;;;7.65;;
22715;SDS011;11525;51.152;4.456;2023-02-24T16:17:54;24.83;;;7.90;;
22715;SDS011;11525;51.152;4.456;2023-02-24T16:20:22;30.73;;;8.38;;
22715;SDS011;11525;51.152;4.456;2023-02-24T16:22:55;26.52;;;5.00;;
22715;SDS011;11525;51.152;4.456;2023-02-24T16:25:22;20.77;;;4.15;;
22715;SDS011;11525;51.152;4.456;2023-02-24T16:27:49;17.00;;;3.50;;
22715;SDS011;11525;51.152;4.456;2023-02-24T16:30:21;9.25;;;3.97;;
22715;SDS011;11525;51.152;4.456;2023-02-24T16:32:48;20.00;;;3.60;;
22715;SDS011;11525;51.152;4.456;2023-02-24T16:35:14;16.40;;;2.95;;
22715;SDS011;11525;51.152;4.456;2023-02-24T16:37:40;14.57;;;3.53;;
22715;SDS011;11525;51.152;4.456;2023-02-24T16:40:18;17.75;;;3.42;;
22715;SDS011;11525;51.152;4.456;2023-02-24T16:42:54;19.92;;;3.15;;
22715;SDS011;11525;51.152;4.456;2023-02-24T16:45:20;17.60;;;3.63;;
22715;SDS011;11525;51.152;4.456;2023-02-24T16:47:49;12.82;;;2.67;;
22715;SDS011;11525;51.152;4.456;2023-02-24T16:50:20;12.23;;;3.80;;
22715;SDS011;11525;51.152;4.456;2023-02-24T16:52:57;15.48;;;3.53;;
22715;SDS011;11525;51.152;4.456;2023-02-24T16:55:23;13.50;;;4.70;;
22715;SDS011;11525;51.152;4.456;2023-02-24T16:57:49;20.60;;;3.92;;
22715;SDS011;11525;51.152;4.456;2023-02-24T17:00:16;22.27;;;3.75;;
22715;SDS011;11525;51.152;4.456;2023-02-24T17:02:45;17.38;;;3.38;;
22715;SDS011;11525;51.152;4.456;2023-02-24T17:05:15;16.23;;;3.45;;
22715;SDS011;11525;51.152;4.456;2023-02-24T17:07:44;12.10;;;3.80;;
22715;SDS011;11525;51.152;4.456;2023-02-24T17:10:11;7.85;;;2.45;;
22715;SDS011;11525;51.152;4.456;2023-02-24T17:12:37;9.43;;;2.67;;
22715;SDS011;11525;51.152;4.456;2023-02-24T17:15:03;12.23;;;3.40;;
22715;SDS011;11525;51.152;4.456;2023-02-24T17:17:29;10.13;;;2.85;;
22715;SDS011;11525;51.152;4.456;2023-02-24T17:19:55;7.15;;;2.63;;
22715;SDS011;11525;51.152;4.456;2023-02-24T17:22:21;12.77;;;2.53;;
22715;SDS011;11525;51.152;4.456;2023-02-24T17:24:47;8.40;;;2.85;;
22715;SDS011;11525;51.152;4.456;2023-02-24T17:27:13;6.20;;;2.72;;
22715;SDS011;11525;51.152;4.456;2023-02-24T17:29:38;11.40;;;3.53;;
22715;SDS011;11525;51.152;4.456;2023-02-24T17:32:04;9.13;;;3.40;;
22715;SDS011;11525;51.152;4.456;2023-02-24T17:34:30;14.80;;;3.33;;
22715;SDS011;11525;51.152;4.456;2023-02-24T17:36:56;12.40;;;2.83;;
22715;SDS011;11525;51.152;4.456;2023-02-24T17:39:22;19.02;;;3.05;;
22715;SDS011;11525;51.152;4.456;2023-02-24T17:41:47;9.27;;;2.92;;
22715;SDS011;11525;51.152;4.456;2023-02-24T17:44:13;18.98;;;4.43;;
22715;SDS011;11525;51.152;4.456;2023-02-24T17:46:39;13.70;;;3.58;;
22715;SDS011;11525;51.152;4.456;2023-02-24T17:49:05;11.13;;;3.78;;